Time,TemperatureF,DewpointF,PressureIn,WindDirection,WindDirectionDegrees,WindSpeedMPH,WindSpeedGustMPH,Humidity,HourlyPrecipIn,Conditions,Clouds,dailyrainin,SoftwareType,DateUTC
2013-01-14 08:23:00,74.0,-99.9,30.16,SE,134,17.0,18.0,-999,-99.99,,,-99.99,,2013-01-14 13:23:00,
2013-01-14 08:30:00,75.0,-99.9,30.16,SE,136,17.0,19.0,-999,-99.99,,,-99.99,,2013-01-14 13:30:00,
2013-01-14 08:34:00,74.0,-99.9,30.16,SE,137,17.0,18.0,-999,-99.99,,,-99.99,,2013-01-14 13:34:00,
2013-01-14 08:43:00,75.0,-99.9,30.16,SE,139,17.0,19.0,-999,-99.99,,,-99.99,,2013-01-14 13:43:00,
2013-01-14 08:53:00,75.0,-99.9,30.16,SE,136,17.0,19.0,-999,-99.99,,,-99.99,,2013-01-14 13:53:00,
2013-01-14 09:03:00,75.0,-99.9,30.16,SE,136,17.0,19.0,-999,-99.99,,,-99.99,,2013-01-14 14:03:00,
2013-01-14 09:13:00,75.0,-99.9,30.16,SE,136,17.0,19.0,-999,-99.99,,,-99.99,,2013-01-14 14:13:00,
2013-01-14 09:23:00,75.0,-99.9,30.16,SE,136,17.0,19.0,-999,-99.99,,,-99.99,,2013-01-14 14:23:00,
2013-01-14 10:12:00,75.0,-99.9,30.19,SE,139,16.0,18.0,-999,-99.99,,,-99.99,,2013-01-14 15:12:00,
2013-01-14 10:24:00,75.0,-99.9,30.19,SE,131,16.0,18.0,-999,-99.99,,,-99.99,,2013-01-14 15:24:00,
2013-01-14 10:34:00,75.0,-99.9,30.19,SE,130,14.0,18.0,-999,-99.99,,,-99.99,,2013-01-14 15:34:00,
2013-01-14 10:43:00,75.0,-99.9,30.19,SE,133,15.0,19.0,-999,-99.99,,,-99.99,,2013-01-14 15:43:00,
2013-01-14 10:53:00,75.0,-99.9,30.18,ESE,122,15.0,20.0,-999,-99.99,,,-99.99,,2013-01-14 15:53:00,
2013-01-14 11:03:00,75.0,-99.9,30.18,SE,133,17.0,18.0,-999,-99.99,,,-99.99,,2013-01-14 16:03:00,
2013-01-14 11:13:00,75.0,-99.9,30.18,SE,136,16.0,18.0,-999,-99.99,,,-99.99,,2013-01-14 16:13:00,
2013-01-14 11:23:00,75.0,-99.9,30.18,SE,137,15.0,18.0,-999,-99.99,,,-99.99,,2013-01-14 16:23:00,
2013-01-14 11:33:00,75.0,-99.9,30.17,SE,142,15.0,16.0,-999,-99.99,,,-99.99,,2013-01-14 16:33:00,
2013-01-14 11:43:00,75.0,-99.9,30.17,SE,138,13.0,16.0,-999,-99.99,,,-99.99,,2013-01-14 16:43:00,
2013-01-14 11:53:00,75.0,-99.9,30.17,SE,143,16.0,18.0,-999,-99.99,,,-99.99,,2013-01-14 16:53:00,
2013-01-14 12:03:00,75.0,-99.9,30.17,SE,143,12.0,17.0,-999,-99.99,,,-99.99,,2013-01-14 17:03:00,
2013-01-14 12:12:00,75.0,-99.9,30.16,SSE,147,15.0,17.0,-999,-99.99,,,-99.99,,2013-01-14 17:12:00,
2013-01-14 12:23:00,75.0,-99.9,30.16,SE,141,13.0,16.0,-999,-99.99,,,-99.99,,2013-01-14 17:23:00,
2013-01-14 12:34:00,75.0,-99.9,30.16,SE,144,13.0,15.0,-999,-99.99,,,-99.99,,2013-01-14 17:34:00,
2013-01-14 12:44:00,75.0,-99.9,30.16,SE,137,13.0,16.0,-999,-99.99,,,-99.99,,2013-01-14 17:44:00,
2013-01-14 12:54:00,75.0,-99.9,30.16,SSE,147,12.0,15.0,-999,-99.99,,,-99.99,,2013-01-14 17:54:00,
2013-01-14 13:03:00,75.0,-99.9,30.16,SSE,155,12.0,15.0,-999,-99.99,,,-99.99,,2013-01-14 18:03:00,
2013-01-14 13:13:00,75.0,-99.9,30.15,SSE,149,12.0,14.0,-999,-99.99,,,-99.99,,2013-01-14 18:13:00,
2013-01-14 13:23:00,75.0,-99.9,30.15,SE,146,11.0,13.0,-999,-99.99,,,-99.99,,2013-01-14 18:23:00,
2013-01-14 13:33:00,75.0,-99.9,30.14,SSE,147,11.0,13.0,-999,-99.99,,,-99.99,,2013-01-14 18:33:00,
2013-01-14 13:43:00,75.0,-99.9,30.14,SSE,147,11.0,13.0,-999,-99.99,,,-99.99,,2013-01-14 18:43:00,
2013-01-14 13:53:00,75.0,-99.9,30.14,SSE,149,13.0,15.0,-999,-99.99,,,-99.99,,2013-01-14 18:53:00,
2013-01-14 14:03:00,75.0,-99.9,30.14,SSE,155,12.0,15.0,-999,-99.99,,,-99.99,,2013-01-14 19:03:00,
2013-01-14 14:13:00,75.0,-99.9,30.14,SSE,157,11.0,13.0,-999,-99.99,,,-99.99,,2013-01-14 19:13:00,
2013-01-14 14:22:00,75.0,-99.9,30.14,SSE,150,12.0,13.0,-999,-99.99,,,-99.99,,2013-01-14 19:22:00,
2013-01-14 14:33:00,75.0,-99.9,30.14,SSE,156,10.0,13.0,-999,-99.99,,,-99.99,,2013-01-14 19:33:00,
2013-01-14 14:43:00,75.0,-99.9,30.14,SSE,153,12.0,13.0,-999,-99.99,,,-99.99,,2013-01-14 19:43:00,
2013-01-14 14:53:00,75.0,-99.9,30.14,SSE,153,12.0,13.0,-999,-99.99,,,-99.99,,2013-01-14 19:53:00,
2013-01-14 15:04:00,75.0,-99.9,30.14,SSE,149,12.0,13.0,-999,-99.99,,,-99.99,,2013-01-14 20:04:00,
2013-01-14 15:13:00,75.0,-99.9,30.14,SSE,149,12.0,13.0,-999,-99.99,,,-99.99,,2013-01-14 20:13:00,
2013-01-14 15:23:00,75.0,-99.9,30.14,SSE,149,12.0,13.0,-999,-99.99,,,-99.99,,2013-01-14 20:23:00,
2013-01-14 15:34:00,75.0,-99.9,30.14,SSE,149,12.0,13.0,-999,-99.99,,,-99.99,,2013-01-14 20:34:00,
2013-01-14 15:53:00,75.0,-99.9,30.14,SSE,154,11.0,13.0,-999,-99.99,,,-99.99,,2013-01-14 20:53:00,
2013-01-14 16:03:00,75.0,-99.9,30.15,SSE,160,9.0,11.0,-999,-99.99,,,-99.99,,2013-01-14 21:03:00,
2013-01-14 16:13:00,75.0,-99.9,30.15,SSE,155,9.0,11.0,-999,-99.99,,,-99.99,,2013-01-14 21:13:00,
2013-01-14 16:23:00,75.0,-99.9,30.15,SSE,155,9.0,11.0,-999,-99.99,,,-99.99,,2013-01-14 21:23:00,
2013-01-14 16:33:00,75.0,-99.9,30.15,SSE,155,9.0,11.0,-999,-99.99,,,-99.99,,2013-01-14 21:33:00,
2013-01-14 16:43:00,75.0,-99.9,30.15,SSE,158,9.0,11.0,-999,-99.99,,,-99.99,,2013-01-14 21:43:00,
2013-01-14 16:53:00,75.0,-99.9,30.16,SSE,154,9.0,10.0,-999,-99.99,,,-99.99,,2013-01-14 21:53:00,
2013-01-14 17:03:00,75.0,-99.9,30.16,SSE,147,9.0,13.0,-999,-99.99,,,-99.99,,2013-01-14 22:03:00,
2013-01-14 17:13:00,75.0,-99.9,30.16,SSE,148,10.0,11.0,-999,-99.99,,,-99.99,,2013-01-14 22:13:00,
2013-01-14 17:23:00,75.0,-99.9,30.16,SE,146,9.0,12.0,-999,-99.99,,,-99.99,,2013-01-14 22:23:00,
2013-01-14 17:33:00,75.0,-99.9,30.16,SSE,149,9.0,10.0,-999,-99.99,,,-99.99,,2013-01-14 22:33:00,
2013-01-14 17:43:00,75.0,-99.9,30.16,SE,139,9.0,11.0,-999,-99.99,,,-99.99,,2013-01-14 22:43:00,
2013-01-14 17:53:00,75.0,-99.9,30.16,SE,133,10.0,11.0,-999,-99.99,,,-99.99,,2013-01-14 22:53:00,
2013-01-14 18:03:00,75.0,-99.9,30.17,SE,140,9.0,11.0,-999,-99.99,,,-99.99,,2013-01-14 23:03:00,
2013-01-14 18:12:00,75.0,-99.9,30.17,SE,137,8.0,11.0,-999,-99.99,,,-99.99,,2013-01-14 23:12:00,
2013-01-14 18:23:00,75.0,-99.9,30.17,SE,129,10.0,11.0,-999,-99.99,,,-99.99,,2013-01-14 23:23:00,
2013-01-14 18:33:00,75.0,-99.9,30.18,SE,133,6.0,8.0,-999,-99.99,,,-99.99,,2013-01-14 23:33:00,
2013-01-14 18:43:00,75.0,-99.9,30.18,SE,129,6.0,8.0,-999,-99.99,,,-99.99,,2013-01-14 23:43:00,
2013-01-14 18:53:00,75.0,-99.9,30.18,ESE,116,8.0,9.0,-999,-99.99,,,-99.99,,2013-01-14 23:53:00,
2013-01-14 19:03:00,75.0,-99.9,30.18,ESE,108,9.0,10.0,-999,-99.99,,,-99.99,,2013-01-15 00:03:00,
2013-01-14 19:12:00,75.0,-99.9,30.18,ESE,113,9.0,10.0,-999,-99.99,,,-99.99,,2013-01-15 00:12:00,
2013-01-14 19:23:00,75.0,-99.9,30.18,ESE,108,9.0,10.0,-999,-99.99,,,-99.99,,2013-01-15 00:23:00,
2013-01-14 19:33:00,75.0,-99.9,30.18,ESE,106,8.0,9.0,-999,-99.99,,,-99.99,,2013-01-15 00:33:00,
2013-01-14 19:43:00,75.0,-99.9,30.18,East,99,6.0,8.0,-999,-99.99,,,-99.99,,2013-01-15 00:43:00,
2013-01-14 19:53:00,75.0,-99.9,30.18,East,95,8.0,9.0,-999,-99.99,,,-99.99,,2013-01-15 00:53:00,
2013-01-14 20:02:00,75.0,-99.9,30.18,ESE,109,7.0,9.0,-999,-99.99,,,-99.99,,2013-01-15 01:02:00,
2013-01-14 20:12:00,75.0,-99.9,30.18,ESE,120,13.0,15.0,-999,-99.99,,,-99.99,,2013-01-15 01:12:00,
2013-01-14 20:23:00,75.0,-99.9,30.18,ESE,117,11.0,15.0,-999,-99.99,,,-99.99,,2013-01-15 01:23:00,
2013-01-14 20:33:00,75.0,-99.9,30.18,ESE,122,9.0,12.0,-999,-99.99,,,-99.99,,2013-01-15 01:33:00,
2013-01-14 20:43:00,75.0,-99.9,30.18,East,96,11.0,12.0,-999,-99.99,,,-99.99,,2013-01-15 01:43:00,
2013-01-14 20:53:00,75.0,-99.9,30.18,East,100,12.0,14.0,-999,-99.99,,,-99.99,,2013-01-15 01:53:00,
2013-01-14 21:03:00,75.0,-99.9,30.17,East,96,12.0,14.0,-999,-99.99,,,-99.99,,2013-01-15 02:03:00,
2013-01-14 21:12:00,75.0,-99.9,30.17,East,101,12.0,14.0,-999,-99.99,,,-99.99,,2013-01-15 02:12:00,
2013-01-14 21:23:00,75.0,-99.9,30.17,ESE,105,13.0,14.0,-999,-99.99,,,-99.99,,2013-01-15 02:23:00,
2013-01-14 21:33:00,75.0,-99.9,30.17,ESE,106,12.0,15.0,-999,-99.99,,,-99.99,,2013-01-15 02:33:00,
2013-01-14 21:43:00,75.0,-99.9,30.17,ESE,112,12.0,17.0,-999,-99.99,,,-99.99,,2013-01-15 02:43:00,
2013-01-14 21:53:00,75.0,-99.9,30.17,East,99,14.0,16.0,-999,-99.99,,,-99.99,,2013-01-15 02:53:00,
2013-01-14 22:03:00,75.0,-99.9,30.17,ESE,109,13.0,16.0,-999,-99.99,,,-99.99,,2013-01-15 03:03:00,
2013-01-14 22:12:00,75.0,-99.9,30.17,ESE,103,13.0,16.0,-999,-99.99,,,-99.99,,2013-01-15 03:12:00,
2013-01-14 22:22:00,76.0,-99.9,30.17,ESE,104,14.0,16.0,-999,-99.99,,,-99.99,,2013-01-15 03:22:00,
2013-01-14 22:33:00,76.0,-99.9,30.17,ESE,110,13.0,15.0,-999,-99.99,,,-99.99,,2013-01-15 03:33:00,
2013-01-14 22:43:00,76.0,-99.9,30.17,ESE,112,13.0,15.0,-999,-99.99,,,-99.99,,2013-01-15 03:43:00,
2013-01-14 22:53:00,75.0,-99.9,30.16,East,101,14.0,16.0,-999,-99.99,,,-99.99,,2013-01-15 03:53:00,
2013-01-14 23:03:00,75.0,-99.9,30.16,ESE,107,12.0,15.0,-999,-99.99,,,-99.99,,2013-01-15 04:03:00,
2013-01-14 23:12:00,76.0,-99.9,30.16,ESE,106,13.0,15.0,-999,-99.99,,,-99.99,,2013-01-15 04:12:00,
2013-01-14 23:22:00,75.0,-99.9,30.16,ESE,117,12.0,13.0,-999,-99.99,,,-99.99,,2013-01-15 04:22:00,
2013-01-14 23:33:00,75.0,-99.9,30.16,ESE,113,13.0,15.0,-999,-99.99,,,-99.99,,2013-01-15 04:33:00,
2013-01-14 23:43:00,75.0,-99.9,30.16,ESE,113,17.0,19.0,-999,-99.99,,,-99.99,,2013-01-15 04:43:00,
2013-01-14 23:53:00,75.0,-99.9,30.15,ESE,108,16.0,19.0,-999,-99.99,,,-99.99,,2013-01-15 04:53:00,